Time;durP1;ratioP1;P1;durP2;ratioP2;P2;SDS_P1;SDS_P2;PMS_P1;PMS_P2;Temp;Humidity;BMP_temperature;BMP_pressure;BME280_temperature;BME280_humidity;BME280_pressure;Samples;Min_cycle;Max_cycle;Signal;HPM_P1;HPM_P2
2023/06/04 00:02:06;;;;;;;19.67;9.85;;;14.30;99.90;;;;;;5073566;28;20036;-65
2023/06/04 00:04:32;;;;;;;16.25;9.57;;;14.20;99.90;;;;;;5073883;28;20038;-65
2023/06/04 00:06:58;;;;;;;22.70;10.63;;;14.30;99.90;;;;;;5073882;28;20299;-64
2023/06/04 00:09:24;;;;;;;25.52;11.10;;;14.30;99.90;;;;;;5073669;28;20033;-64
2023/06/04 00:11:50;;;;;;;21.13;11.02;;;14.20;99.90;;;;;;5073833;28;20075;-65
2023/06/04 00:14:16;;;;;;;22.05;11.10;;;14.20;99.90;;;;;;5073677;28;20467;-65
2023/06/04 00:16:42;;;;;;;23.02;12.70;;;14.20;99.90;;;;;;5073679;28;20027;-65
2023/06/04 00:19:09;;;;;;;25.00;13.07;;;14.10;99.90;;;;;;5074012;28;20033;-65
2023/06/04 00:21:35;;;;;;;25.45;12.68;;;14.20;99.90;;;;;;5073832;28;20474;-65
2023/06/04 00:24:02;;;;;;;30.42;14.07;;;14.10;99.90;;;;;;5073429;28;20035;-65
2023/06/04 00:26:28;;;;;;;29.83;13.80;;;14.00;99.90;;;;;;5077208;28;20037;-65
2023/06/04 00:28:55;;;;;;;28.85;13.20;;;14.00;99.90;;;;;;5077224;28;20028;-65
2023/06/04 00:31:21;;;;;;;28.98;13.60;;;14.00;99.90;;;;;;5077107;28;20028;-65
2023/06/04 00:33:50;;;;;;;24.25;12.77;;;13.90;99.90;;;;;;5077235;28;20039;-65
2023/06/04 00:36:16;;;;;;;27.60;12.20;;;13.90;99.90;;;;;;5075930;28;20033;-65
2023/06/04 00:38:42;;;;;;;23.27;12.38;;;14.00;99.90;;;;;;5076978;28;20037;-65
2023/06/04 00:41:08;;;;;;;18.38;10.25;;;14.00;99.90;;;;;;5077203;28;20134;-65
2023/06/04 00:43:35;;;;;;;22.33;9.95;;;13.90;99.90;;;;;;5075689;28;20039;-65
2023/06/04 00:46:03;;;;;;;17.95;10.05;;;13.90;99.90;;;;;;5076823;28;20033;-65
2023/06/04 00:48:30;;;;;;;21.10;10.55;;;13.90;99.90;;;;;;5076934;28;20031;-65
2023/06/04 00:50:56;;;;;;;17.75;10.65;;;14.00;99.90;;;;;;5075571;28;20028;-65
2023/06/04 00:53:24;;;;;;;20.17;10.45;;;13.90;99.90;;;;;;5076768;28;20025;-65
2023/06/04 00:55:51;;;;;;;29.45;11.10;;;13.90;99.90;;;;;;5076689;28;20028;-65
2023/06/04 00:58:17;;;;;;;16.15;9.75;;;13.90;99.90;;;;;;5075326;28;20123;-65
2023/06/04 01:00:45;;;;;;;21.38;10.90;;;13.90;99.90;;;;;;5076693;28;20028;-65
2023/06/04 01:03:17;;;;;;;21.83;9.90;;;13.90;99.90;;;;;;5075321;28;20486;-65
2023/06/04 01:06:01;;;;;;;18.92;9.50;;;13.90;99.90;;;;;;5076593;28;20057;-65
2023/06/04 01:08:27;;;;;;;14.98;9.02;;;13.90;99.90;;;;;;5076844;28;20139;-65
2023/06/04 01:10:55;;;;;;;19.83;9.45;;;13.90;99.90;;;;;;5075024;28;20086;-65
2023/06/04 01:13:21;;;;;;;16.60;9.32;;;13.90;99.90;;;;;;5076435;28;20024;-65
2023/06/04 01:15:47;;;;;;;15.18;8.98;;;13.80;99.90;;;;;;5076407;28;20028;-65
2023/06/04 01:18:28;;;;;;;18.42;8.95;;;13.70;99.90;;;;;;5076361;28;20032;-65
2023/06/04 01:21:01;;;;;;;18.88;9.88;;;13.70;99.90;;;;;;5075086;28;20032;-65
2023/06/04 01:23:38;;;;;;;13.55;9.23;;;13.70;99.90;;;;;;5076088;28;20104;-65
2023/06/04 01:26:05;;;;;;;19.67;8.70;;;13.60;99.90;;;;;;5058301;28;20028;-65
2023/06/04 01:28:34;;;;;;;19.58;8.65;;;13.60;99.90;;;;;;5075934;28;20025;-65
2023/06/04 01:31:01;;;;;;;14.95;8.43;;;13.60;99.90;;;;;;5076075;28;20032;-65
2023/06/04 01:33:28;;;;;;;13.23;8.60;;;13.60;99.90;;;;;;5076124;28;20039;-65
2023/06/04 01:35:54;;;;;;;22.23;9.25;;;13.50;99.90;;;;;;5075476;28;20084;-65
2023/06/04 01:38:20;;;;;;;21.50;9.07;;;13.50;99.90;;;;;;5076017;28;20036;-65
2023/06/04 01:40:47;;;;;;;16.92;9.15;;;13.40;99.90;;;;;;5074591;28;20040;-65
2023/06/04 01:43:13;;;;;;;18.30;8.95;;;13.30;99.90;;;;;;5074536;28;20033;-65
2023/06/04 01:45:39;;;;;;;21.35;9.05;;;13.30;99.90;;;;;;5075829;28;20386;-65
2023/06/04 01:48:06;;;;;;;14.38;8.27;;;13.30;99.90;;;;;;5057635;28;20036;-65
2023/06/04 01:50:32;;;;;;;19.35;9.18;;;13.30;99.90;;;;;;5075628;28;20082;-65
2023/06/04 01:52:58;;;;;;;20.25;8.63;;;13.30;99.90;;;;;;5074228;28;20036;-65
2023/06/04 01:55:29;;;;;;;19.95;9.48;;;13.30;99.90;;;;;;5075580;28;20025;-65
2023/06/04 01:57:55;;;;;;;21.42;9.15;;;13.20;99.90;;;;;;5073922;28;20041;-65
2023/06/04 02:00:22;;;;;;;19.40;8.27;;;13.20;99.90;;;;;;5074274;28;20059;-65
2023/06/04 02:02:49;;;;;;;21.10;9.15;;;13.20;99.90;;;;;;5075430;28;20035;-65
2023/06/04 02:05:16;;;;;;;20.00;8.85;;;13.20;99.90;;;;;;5075355;28;20059;-65
2023/06/04 02:07:44;;;;;;;15.95;9.20;;;13.20;99.90;;;;;;5074075;28;20757;-65
2023/06/04 02:10:11;;;;;;;21.23;9.10;;;13.20;99.90;;;;;;5075346;28;20059;-65
2023/06/04 02:12:40;;;;;;;16.45;8.65;;;13.10;99.90;;;;;;5073828;28;20024;-65
2023/06/04 02:15:07;;;;;;;19.42;7.80;;;13.20;99.90;;;;;;5075220;28;20074;-65
2023/06/04 02:17:37;;;;;;;17.98;8.45;;;13.20;99.90;;;;;;5073680;28;20036;-65
2023/06/04 02:20:05;;;;;;;17.33;8.20;;;13.10;99.90;;;;;;5075175;28;20158;-65
2023/06/04 02:22:31;;;;;;;14.75;8.55;;;13.10;99.90;;;;;;5075139;28;20375;-65
2023/06/04 02:24:59;;;;;;;11.32;7.38;;;13.10;99.90;;;;;;5074934;28;20039;-65
2023/06/04 02:27:25;;;;;;;13.73;8.60;;;13.10;99.90;;;;;;5074877;28;20111;-65
2023/06/04 02:29:51;;;;;;;18.08;8.77;;;13.00;99.90;;;;;;5073577;28;20029;-65
2023/06/04 02:32:17;;;;;;;14.13;8.88;;;13.00;99.90;;;;;;5074906;28;20063;-65
2023/06/04 02:34:44;;;;;;;27.10;8.65;;;13.00;99.90;;;;;;5073488;28;20029;-65
2023/06/04 02:37:10;;;;;;;14.55;8.27;;;13.00;99.90;;;;;;5074864;28;20052;-65
2023/06/04 02:39:36;;;;;;;16.73;8.48;;;13.00;99.90;;;;;;5073432;28;20446;-65
2023/06/04 02:42:02;;;;;;;11.77;8.43;;;12.90;99.90;;;;;;5074925;28;20033;-65
2023/06/04 02:44:29;;;;;;;13.48;7.93;;;13.00;99.90;;;;;;5074850;28;20107;-65
2023/06/04 02:46:55;;;;;;;18.33;8.65;;;13.00;99.90;;;;;;5073800;28;20032;-65
2023/06/04 02:49:21;;;;;;;14.32;8.00;;;13.00;99.90;;;;;;5073501;28;20028;-65
2023/06/04 02:51:47;;;;;;;14.93;7.85;;;12.90;99.90;;;;;;5073351;28;20083;-65
2023/06/04 02:54:13;;;;;;;14.10;8.32;;;12.90;99.90;;;;;;5074569;28;20356;-65
2023/06/04 02:56:40;;;;;;;21.20;8.88;;;12.90;99.90;;;;;;5074509;28;20051;-65
2023/06/04 02:59:09;;;;;;;12.95;7.53;;;12.90;99.90;;;;;;5074493;28;20359;-65
2023/06/04 03:01:35;;;;;;;17.33;8.82;;;12.90;99.90;;;;;;5073260;28;20265;-65
2023/06/04 03:04:04;;;;;;;20.40;8.35;;;12.90;99.90;;;;;;5073372;28;20040;-65
2023/06/04 03:06:34;;;;;;;15.93;8.07;;;12.80;99.90;;;;;;5074452;28;20166;-65
2023/06/04 03:09:00;;;;;;;12.83;8.83;;;12.80;99.90;;;;;;5074280;28;20612;-65
2023/06/04 03:11:27;;;;;;;14.43;7.65;;;12.80;99.90;;;;;;5073197;28;20056;-65
2023/06/04 03:13:54;;;;;;;16.25;8.20;;;12.80;99.90;;;;;;5074298;28;20044;-65
2023/06/04 03:16:20;;;;;;;13.80;8.25;;;12.80;99.90;;;;;;5073139;28;20029;-65
2023/06/04 03:18:46;;;;;;;19.48;8.70;;;12.80;99.90;;;;;;5073114;28;20034;-65
2023/06/04 03:21:13;;;;;;;13.68;8.50;;;12.90;99.90;;;;;;5074242;28;20043;-65
2023/06/04 03:23:40;;;;;;;19.42;11.05;;;12.80;99.90;;;;;;5073033;28;20078;-65
2023/06/04 03:26:06;;;;;;;15.88;9.13;;;12.80;99.90;;;;;;5072961;28;20036;-65
2023/06/04 03:28:33;;;;;;;14.65;8.68;;;12.70;99.90;;;;;;5072818;28;20090;-65
2023/06/04 03:31:02;;;;;;;13.88;8.13;;;12.70;99.90;;;;;;5072899;28;20031;-65
2023/06/04 03:33:29;;;;;;;13.73;7.72;;;12.70;99.90;;;;;;5072920;28;20394;-65
2023/06/04 03:35:58;;;;;;;13.73;8.32;;;12.60;99.90;;;;;;5074084;28;20469;-65
2023/06/04 03:38:27;;;;;;;18.27;9.57;;;12.60;99.90;;;;;;5072828;28;20524;-65
2023/06/04 03:40:54;;;;;;;20.33;9.50;;;12.70;99.90;;;;;;5072736;28;20035;-65
2023/06/04 03:43:20;;;;;;;14.55;9.68;;;12.60;99.90;;;;;;5074245;28;20108;-65
2023/06/04 03:45:48;;;;;;;20.60;9.60;;;12.70;99.90;;;;;;5072800;28;20482;-65
2023/06/04 03:48:15;;;;;;;18.30;9.13;;;12.80;99.90;;;;;;5072637;28;20032;-65
2023/06/04 03:50:43;;;;;;;14.10;8.25;;;12.70;99.90;;;;;;5072733;28;20047;-65
2023/06/04 03:53:10;;;;;;;15.00;8.50;;;12.80;99.90;;;;;;5072582;28;20028;-65
2023/06/04 03:55:36;;;;;;;14.57;8.13;;;12.80;99.90;;;;;;5074069;28;20032;-65
2023/06/04 03:58:06;;;;;;;14.13;8.13;;;12.90;99.90;;;;;;5063279;28;20051;-65
2023/06/04 04:00:32;;;;;;;20.98;8.68;;;12.90;99.90;;;;;;5056498;28;20037;-65
2023/06/04 04:03:01;;;;;;;22.13;8.75;;;12.80;99.90;;;;;;5056308;28;20033;-65
2023/06/04 04:05:29;;;;;;;19.52;9.05;;;12.80;99.90;;;;;;5056278;28;20024;-65
2023/06/04 04:07:55;;;;;;;25.75;9.60;;;12.90;99.90;;;;;;5057496;28;20047;-65
2023/06/04 04:10:25;;;;;;;23.70;10.27;;;13.00;99.90;;;;;;5056270;28;20413;-65
2023/06/04 04:12:54;;;;;;;18.30;9.13;;;13.00;99.90;;;;;;5056193;28;20156;-65
2023/06/04 04:15:21;;;;;;;19.38;9.23;;;13.00;99.90;;;;;;5056232;28;20021;-65
2023/06/04 04:17:47;;;;;;;18.63;11.02;;;13.10;99.90;;;;;;5056190;28;20032;-65
2023/06/04 04:20:14;;;;;;;12.80;10.38;;;13.20;99.90;;;;;;5055936;28;20439;-65
2023/06/04 04:22:47;;;;;;;14.52;9.77;;;13.40;99.90;;;;;;5040431;28;20681;-65
2023/06/04 04:25:14;;;;;;;16.98;9.63;;;13.50;99.90;;;;;;5055915;28;20036;-65
2023/06/04 04:27:40;;;;;;;15.13;9.32;;;13.60;99.90;;;;;;5056079;28;20490;-65
2023/06/04 04:30:10;;;;;;;16.17;10.13;;;13.60;99.90;;;;;;5039604;28;20402;-65
2023/06/04 04:32:38;;;;;;;22.10;9.88;;;13.70;99.90;;;;;;5055825;28;20182;-65
2023/06/04 04:35:08;;;;;;;25.25;10.43;;;13.70;99.90;;;;;;5055761;28;20383;-65
2023/06/04 04:37:38;;;;;;;21.13;9.57;;;13.80;99.90;;;;;;5055818;28;20036;-65
2023/06/04 04:40:09;;;;;;;17.23;10.10;;;13.90;99.90;;;;;;5055690;28;20055;-65
2023/06/04 04:42:36;;;;;;;16.30;10.00;;;13.90;99.90;;;;;;5055598;28;20082;-65
2023/06/04 04:45:04;;;;;;;16.65;10.00;;;14.00;99.90;;;;;;5055779;28;20453;-65
2023/06/04 04:47:31;;;;;;;16.40;10.60;;;14.00;99.90;;;;;;5056782;28;20120;-65
2023/06/04 04:49:57;;;;;;;17.30;9.55;;;14.20;99.90;;;;;;5055490;28;20541;-65
2023/06/04 04:52:24;;;;;;;16.52;10.10;;;14.40;99.90;;;;;;5055598;28;20389;-65
2023/06/04 04:54:55;;;;;;;16.20;9.20;;;14.40;99.90;;;;;;5039062;28;20029;-65
2023/06/04 04:57:22;;;;;;;13.70;8.57;;;14.60;99.90;;;;;;5061338;28;20048;-65
2023/06/04 04:59:51;;;;;;;12.68;8.20;;;14.70;99.90;;;;;;5059108;28;20031;-65
2023/06/04 05:02:17;;;;;;;11.85;8.13;;;14.80;99.90;;;;;;5075332;28;20039;-65
2023/06/04 05:04:44;;;;;;;19.70;10.35;;;14.90;99.90;;;;;;5075375;28;20058;-65
2023/06/04 05:07:11;;;;;;;16.80;10.10;;;14.90;99.90;;;;;;5058812;28;20067;-65
2023/06/04 05:09:37;;;;;;;29.35;15.85;;;15.00;99.90;;;;;;5057416;28;20059;-65
2023/06/04 05:12:04;;;;;;;37.28;17.58;;;15.00;99.90;;;;;;5075174;28;20497;-65
2023/06/04 05:14:32;;;;;;;31.83;16.13;;;15.10;99.90;;;;;;5075044;28;20024;-65
2023/06/04 05:16:58;;;;;;;29.58;15.73;;;15.30;99.90;;;;;;5075009;28;20024;-65
2023/06/04 05:19:25;;;;;;;28.45;14.77;;;15.30;99.90;;;;;;5075085;28;20024;-65
2023/06/04 05:21:51;;;;;;;24.73;13.57;;;15.40;99.90;;;;;;5075012;28;20102;-64
2023/06/04 05:24:17;;;;;;;29.95;15.13;;;15.60;99.90;;;;;;5074916;28;20032;-64
2023/06/04 05:26:44;;;;;;;21.90;14.27;;;15.60;99.90;;;;;;5076181;28;20032;-65
2023/06/04 05:29:15;;;;;;;26.75;15.05;;;15.70;99.90;;;;;;5074586;28;20028;-65
2023/06/04 05:31:43;;;;;;;23.38;14.43;;;15.70;99.90;;;;;;5074734;28;20025;-65
2023/06/04 05:34:16;;;;;;;26.08;14.50;;;15.80;99.90;;;;;;5058579;28;20561;-65
2023/06/04 05:36:43;;;;;;;29.45;16.95;;;15.90;99.90;;;;;;5074524;28;20032;-65
2023/06/04 05:39:10;;;;;;;26.88;14.50;;;16.10;99.90;;;;;;5074631;28;20028;-65
2023/06/04 05:41:59;;;;;;;26.07;14.40;;;16.30;99.90;;;;;;5064221;28;20040;-65
2023/06/04 05:44:25;;;;;;;25.38;15.25;;;16.40;99.90;;;;;;5076065;28;20031;-65
2023/06/04 05:46:51;;;;;;;24.92;14.70;;;16.50;99.90;;;;;;5074539;28;20123;-65
2023/06/04 05:49:17;;;;;;;20.25;13.55;;;16.50;99.90;;;;;;5074522;28;20028;-65
2023/06/04 05:51:43;;;;;;;27.88;14.32;;;16.60;99.90;;;;;;5075735;28;20111;-65
2023/06/04 05:54:10;;;;;;;27.42;15.15;;;16.60;99.90;;;;;;5075559;28;20020;-65
2023/06/04 05:56:41;;;;;;;20.60;13.88;;;16.70;99.90;;;;;;5074183;28;20048;-65
2023/06/04 05:59:07;;;;;;;22.27;14.07;;;16.90;99.90;;;;;;5074376;28;20103;-65
2023/06/04 06:01:33;;;;;;;25.10;15.15;;;17.00;99.90;;;;;;5073810;28;20119;-65
2023/06/04 06:03:59;;;;;;;21.60;14.70;;;16.90;99.90;;;;;;5074074;28;20166;-65
2023/06/04 06:06:28;;;;;;;19.58;12.95;;;17.10;99.90;;;;;;5074031;28;20462;-65
2023/06/04 06:08:54;;;;;;;22.73;14.63;;;17.20;99.90;;;;;;5073767;28;20544;-65
2023/06/04 06:11:21;;;;;;;24.17;13.88;;;17.30;99.90;;;;;;5074081;28;20025;-65
2023/06/04 06:13:48;;;;;;;27.23;13.73;;;17.40;99.90;;;;;;5075390;28;20031;-65
2023/06/04 06:16:16;;;;;;;20.90;13.73;;;17.50;99.90;;;;;;5073814;28;20021;-65
2023/06/04 06:18:44;;;;;;;24.50;15.93;;;17.70;99.90;;;;;;5073827;28;20489;-65
2023/06/04 06:21:10;;;;;;;22.73;15.93;;;17.80;99.90;;;;;;5073673;28;20028;-65
2023/06/04 06:23:36;;;;;;;25.02;16.23;;;17.90;99.90;;;;;;5073696;28;20449;-65
2023/06/04 06:26:04;;;;;;;26.23;16.92;;;18.00;99.90;;;;;;5073819;28;20024;-65
2023/06/04 06:28:32;;;;;;;29.10;16.17;;;18.10;99.90;;;;;;5073677;28;20036;-65
2023/06/04 06:30:59;;;;;;;27.25;16.77;;;18.20;99.90;;;;;;5073860;28;20032;-65
2023/06/04 06:33:25;;;;;;;25.27;15.18;;;18.30;99.90;;;;;;5074881;28;20051;-65
2023/06/04 06:35:51;;;;;;;25.05;15.85;;;18.50;99.90;;;;;;5073595;28;20035;-65
2023/06/04 06:38:17;;;;;;;28.42;15.90;;;18.70;99.90;;;;;;5073596;28;20474;-65
2023/06/04 06:40:43;;;;;;;24.77;15.60;;;18.70;99.90;;;;;;5073518;28;20096;-65
2023/06/04 06:43:10;;;;;;;24.08;14.30;;;18.90;99.90;;;;;;5074668;28;20458;-65
2023/06/04 06:45:36;;;;;;;19.20;13.05;;;18.80;99.90;;;;;;5056817;28;20169;-65
2023/06/04 06:48:03;;;;;;;20.35;13.77;;;19.00;99.90;;;;;;5073102;28;20141;-65
2023/06/04 06:50:29;;;;;;;18.58;12.55;;;19.20;99.90;;;;;;5074609;28;20134;-65
2023/06/04 06:52:55;;;;;;;22.08;13.50;;;19.30;99.90;;;;;;5073536;28;20042;-65
2023/06/04 06:55:21;;;;;;;28.55;13.38;;;19.50;99.90;;;;;;5074548;28;20020;-65
2023/06/04 06:57:47;;;;;;;17.90;12.25;;;19.90;99.90;;;;;;5064844;28;20059;-65
2023/06/04 07:00:14;;;;;;;19.67;13.00;;;20.10;99.90;;;;;;5054709;28;20110;-65
2023/06/04 07:02:41;;;;;;;16.13;11.07;;;20.40;99.90;;;;;;5053313;28;20088;-65
2023/06/04 07:05:07;;;;;;;16.48;11.27;;;20.80;99.90;;;;;;5054436;28;20068;-65
2023/06/04 07:07:33;;;;;;;27.55;11.38;;;21.00;99.90;;;;;;5053211;28;20040;-65
2023/06/04 07:09:59;;;;;;;16.98;10.30;;;21.30;99.90;;;;;;5054182;28;20029;-65
2023/06/04 07:12:25;;;;;;;16.55;9.13;;;21.40;99.90;;;;;;5053149;28;20442;-65
2023/06/04 07:14:51;;;;;;;19.85;9.80;;;21.70;99.90;;;;;;5054453;28;20036;-65
2023/06/04 07:17:17;;;;;;;10.32;8.18;;;22.00;99.90;;;;;;5054258;28;20021;-65
2023/06/04 07:19:43;;;;;;;15.23;8.93;;;22.50;99.90;;;;;;5052912;28;20071;-65
2023/06/04 07:22:10;;;;;;;12.20;8.38;;;22.70;99.90;;;;;;5054321;28;20029;-65
2023/06/04 07:24:36;;;;;;;12.93;7.88;;;23.20;99.90;;;;;;5054426;28;20078;-65
2023/06/04 07:27:02;;;;;;;12.70;8.25;;;23.00;99.90;;;;;;5054013;28;20474;-65
2023/06/04 07:29:28;;;;;;;14.23;7.40;;;23.60;99.90;;;;;;5054083;28;20036;-65
2023/06/04 07:31:54;;;;;;;11.07;7.10;;;23.90;99.90;;;;;;5054312;28;20493;-65
2023/06/04 07:34:20;;;;;;;10.82;7.18;;;24.00;99.90;;;;;;5056542;28;20037;-65
2023/06/04 07:36:47;;;;;;;15.00;7.68;;;23.80;99.90;;;;;;5057055;28;20029;-65
2023/06/04 07:39:13;;;;;;;14.95;7.45;;;24.40;99.90;;;;;;5057120;28;20048;-65
2023/06/04 07:41:39;;;;;;;11.50;6.47;;;24.80;99.90;;;;;;5058156;28;20091;-65
2023/06/04 07:44:05;;;;;;;12.98;6.97;;;24.70;99.90;;;;;;5056974;28;20033;-65
2023/06/04 07:46:30;;;;;;;10.50;6.60;;;25.10;99.90;;;;;;5056737;28;20029;-65
2023/06/04 07:48:57;;;;;;;11.93;5.72;;;25.30;99.90;;;;;;5058005;28;20032;-65
2023/06/04 07:51:23;;;;;;;14.55;6.85;;;25.40;99.90;;;;;;5057954;28;20066;-65
2023/06/04 07:53:49;;;;;;;7.65;5.80;;;24.90;99.90;;;;;;5057896;28;20053;-65
2023/06/04 07:56:15;;;;;;;9.45;6.07;;;25.20;99.90;;;;;;5057729;28;20041;-65
2023/06/04 07:58:41;;;;;;;11.82;5.55;;;25.10;99.90;;;;;;5074572;28;20060;-65
2023/06/04 08:01:07;;;;;;;9.10;4.95;;;24.80;99.90;;;;;;5076630;28;20111;-65
2023/06/04 08:03:33;;;;;;;5.97;4.45;;;25.30;99.90;;;;;;5077730;28;20437;-65
2023/06/04 08:06:00;;;;;;;12.98;5.35;;;25.60;99.90;;;;;;5077605;28;20021;-65
2023/06/04 08:08:25;;;;;;;8.88;5.03;;;24.90;99.90;;;;;;5077649;28;20028;-64
2023/06/04 08:10:51;;;;;;;8.45;4.90;;;25.50;99.90;;;;;;5077554;28;20021;-65
2023/06/04 08:13:17;;;;;;;9.73;4.90;;;25.70;99.90;;;;;;5077493;28;20032;-65
2023/06/04 08:15:43;;;;;;;8.43;4.38;;;26.40;99.90;;;;;;5077431;28;20039;-65
2023/06/04 08:18:09;;;;;;;11.57;4.90;;;26.80;99.90;;;;;;5076394;28;20025;-65
2023/06/04 08:20:35;;;;;;;7.82;4.72;;;27.20;99.90;;;;;;5077409;28;20466;-65
2023/06/04 08:23:01;;;;;;;9.57;5.10;;;26.70;99.90;;;;;;5077566;28;20104;-65
2023/06/04 08:25:27;;;;;;;12.10;5.15;;;26.60;99.90;;;;;;5077217;28;20028;-64
2023/06/04 08:27:53;;;;;;;17.15;4.63;;;25.60;99.90;;;;;;5077287;28;20059;-64
2023/06/04 08:30:19;;;;;;;8.05;4.72;;;25.70;99.90;;;;;;5077129;28;20024;-64
2023/06/04 08:32:45;;;;;;;7.15;4.85;;;26.40;99.90;;;;;;5077253;28;20031;-64
2023/06/04 08:35:11;;;;;;;7.75;4.32;;;26.40;99.90;;;;;;5077094;28;20021;-64
2023/06/04 08:37:37;;;;;;;8.10;4.88;;;26.30;99.90;;;;;;5077201;28;20119;-65
2023/06/04 08:40:05;;;;;;;7.30;4.47;;;25.60;99.90;;;;;;5075810;28;20037;-65
2023/06/04 08:42:36;;;;;;;9.10;4.70;;;26.40;99.90;;;;;;5076949;28;20462;-64
2023/06/04 08:45:02;;;;;;;7.88;4.57;;;27.30;99.90;;;;;;5074551;28;20036;-65
2023/06/04 08:47:30;;;;;;;7.30;5.07;;;27.70;99.90;;;;;;5077071;28;20082;-65
2023/06/04 08:50:00;;;;;;;13.18;4.43;;;27.90;99.90;;;;;;5076748;28;20367;-64
2023/06/04 08:52:26;;;;;;;;;;;28.30;99.90;;;;;;5077256;28;20037;-64
2023/06/04 08:54:54;;;;;;;6.78;4.63;;;28.00;99.90;;;;;;5075560;28;19915;-65
2023/06/04 08:57:20;;;;;;;9.80;5.05;;;26.30;99.90;;;;;;5070670;28;20376;-64
2023/06/04 08:59:50;;;;;;;7.43;4.53;;;27.20;99.90;;;;;;5056691;28;20035;-64
2023/06/04 09:02:17;;;;;;;9.85;4.43;;;26.90;99.90;;;;;;5056629;28;20067;-65
2023/06/04 09:04:44;;;;;;;7.25;4.30;;;27.40;99.90;;;;;;5056629;28;20041;-65
2023/06/04 09:07:12;;;;;;;9.48;4.57;;;27.20;99.90;;;;;;5056477;28;20067;-65
2023/06/04 09:09:42;;;;;;;7.90;4.72;;;27.20;99.90;;;;;;5055189;28;20032;-65
2023/06/04 09:12:18;;;;;;;15.07;5.70;;;28.00;99.90;;;;;;5055026;28;20116;-65
2023/06/04 09:14:45;;;;;;;9.75;4.68;;;28.30;99.90;;;;;;5056428;28;20036;-65
2023/06/04 09:17:10;;;;;;;6.78;4.07;;;28.90;99.90;;;;;;5056409;28;20032;-65
2023/06/04 09:19:36;;;;;;;7.20;4.13;;;28.70;99.90;;;;;;5056380;28;20037;-65
2023/06/04 09:22:02;;;;;;;8.23;4.68;;;27.40;99.90;;;;;;5056360;28;20045;-64
2023/06/04 09:24:49;;;;;;;9.93;4.32;;;27.30;99.90;;;;;;5056156;28;20453;-65
2023/06/04 09:27:17;;;;;;;7.32;3.83;;;27.40;99.90;;;;;;5056233;28;20039;-64
2023/06/04 09:29:53;;;;;;;5.38;3.70;;;27.40;99.90;;;;;;5056105;28;20025;-64
2023/06/04 09:32:27;;;;;;;6.20;4.50;;;28.20;99.90;;;;;;5056172;28;20025;-65
2023/06/04 09:35:08;;;;;;;6.97;3.80;;;27.00;99.90;;;;;;5055856;28;20025;-64
2023/06/04 09:37:35;;;;;;;8.45;4.30;;;27.50;99.90;;;;;;5056026;28;20040;-65
2023/06/04 09:40:03;;;;;;;8.68;4.63;;;26.80;99.90;;;;;;5056027;28;20025;-65
2023/06/04 09:42:29;;;;;;;7.35;3.95;;;27.40;99.90;;;;;;5038001;28;20040;-65
2023/06/04 09:44:55;;;;;;;9.85;4.65;;;28.00;99.90;;;;;;5055945;28;20033;-65
2023/06/04 09:47:21;;;;;;;8.20;4.05;;;27.90;99.90;;;;;;5054543;28;20033;-64
2023/06/04 09:49:50;;;;;;;13.32;5.70;;;28.20;99.90;;;;;;5054418;28;20044;-65
2023/06/04 09:52:17;;;;;;;5.97;4.35;;;27.20;99.90;;;;;;5054458;28;20112;-65
2023/06/04 09:54:43;;;;;;;6.97;4.43;;;26.90;99.90;;;;;;5055620;28;20440;-65
2023/06/04 09:57:17;;;;;;;8.80;4.53;;;27.60;99.90;;;;;;5059483;28;20048;-65
2023/06/04 09:59:49;;;;;;;8.57;5.05;;;28.20;99.90;;;;;;5075479;28;20036;-65
2023/06/04 10:02:21;;;;;;;9.18;4.72;;;28.90;99.90;;;;;;5075451;28;20040;-65
2023/06/04 10:04:57;;;;;;;7.38;4.57;;;29.20;99.90;;;;;;5075544;28;20036;-65
2023/06/04 10:07:24;;;;;;;6.97;4.70;;;28.40;99.90;;;;;;5075284;28;20432;-65
2023/06/04 10:09:52;;;;;;;6.82;4.32;;;29.10;99.90;;;;;;5075203;28;20025;-65
2023/06/04 10:12:28;;;;;;;8.82;5.75;;;29.60;99.90;;;;;;5075300;28;20055;-65
2023/06/04 10:15:02;;;;;;;7.82;4.18;;;29.80;99.90;;;;;;5075304;28;20029;-65
2023/06/04 10:17:29;;;;;;;5.93;4.43;;;29.00;99.90;;;;;;5075258;28;20024;-65
2023/06/04 10:19:57;;;;;;;6.75;4.35;;;28.30;99.90;;;;;;5075158;28;20032;-65
2023/06/04 10:22:24;;;;;;;7.50;4.93;;;29.10;99.90;;;;;;5075080;28;20576;-65
2023/06/04 10:24:51;;;;;;;8.77;4.68;;;29.00;99.90;;;;;;5075010;28;20060;-65
2023/06/04 10:27:20;;;;;;;6.80;4.10;;;28.80;99.90;;;;;;5075025;28;20025;-65
2023/06/04 10:29:46;;;;;;;5.55;4.70;;;29.20;99.90;;;;;;5074927;28;20036;-65
2023/06/04 10:32:12;;;;;;;7.82;4.97;;;29.20;99.90;;;;;;5074996;28;20024;-65
2023/06/04 10:34:38;;;;;;;10.93;4.50;;;29.10;99.90;;;;;;5074760;28;20059;-65
2023/06/04 10:37:05;;;;;;;11.00;4.25;;;28.10;99.90;;;;;;5074913;28;20032;-65
2023/06/04 10:39:32;;;;;;;8.02;4.63;;;27.80;99.90;;;;;;5073467;28;20490;-65
2023/06/04 10:42:07;;;;;;;8.48;4.43;;;28.10;99.90;;;;;;5074921;28;20390;-65
2023/06/04 10:44:46;;;;;;;6.30;4.28;;;28.50;99.90;;;;;;5074796;28;20115;-65
2023/06/04 10:47:31;;;;;;;8.32;4.20;;;28.30;99.90;;;;;;5073300;28;20036;-65
2023/06/04 10:50:09;;;;;;;7.30;4.90;;;28.60;99.90;;;;;;5074544;28;20036;-65
2023/06/04 10:52:35;;;;;;;8.15;4.65;;;29.20;99.90;;;;;;5073384;28;20056;-65
2023/06/04 10:55:05;;;;;;;8.02;4.85;;;29.80;99.90;;;;;;5074612;28;20048;-65
2023/06/04 10:57:31;;;;;;;5.88;4.65;;;30.40;99.90;;;;;;5067042;28;20395;-65
2023/06/04 10:59:59;;;;;;;7.47;4.43;;;30.60;99.90;;;;;;5053331;28;20036;-65
2023/06/04 11:02:26;;;;;;;7.32;4.95;;;31.00;99.90;;;;;;5054399;28;20090;-65
2023/06/04 11:05:05;;;;;;;8.30;5.20;;;31.20;99.90;;;;;;5054585;28;20378;-65
2023/06/04 11:07:43;;;;;;;13.00;5.47;;;31.40;99.90;;;;;;5052583;28;20039;-65
2023/06/04 11:10:11;;;;;;;11.38;5.10;;;31.60;99.90;;;;;;5054219;28;20029;-65
2023/06/04 11:12:46;;;;;;;11.68;5.18;;;31.60;99.90;;;;;;5053216;28;20033;-65
2023/06/04 11:15:16;;;;;;;9.40;5.13;;;31.80;99.90;;;;;;5054249;28;20029;-65
2023/06/04 11:17:58;;;;;;;9.13;5.82;;;32.10;99.90;;;;;;5054549;28;20072;-65
2023/06/04 11:20:24;;;;;;;9.43;4.70;;;32.10;99.90;;;;;;5054337;28;20033;-65
2023/06/04 11:22:51;;;;;;;10.43;4.60;;;32.30;99.90;;;;;;5054297;28;20541;-65
2023/06/04 11:25:17;;;;;;;8.18;4.45;;;32.50;99.90;;;;;;5053094;28;20025;-65
2023/06/04 11:27:43;;;;;;;12.30;4.97;;;32.40;99.90;;;;;;5054233;28;20037;-65
2023/06/04 11:30:11;;;;;;;8.43;5.25;;;32.50;99.90;;;;;;5054316;28;20505;-65
2023/06/04 11:32:37;;;;;;;6.40;4.40;;;31.80;99.90;;;;;;5052913;28;20037;-65
2023/06/04 11:35:07;;;;;;;6.80;4.45;;;32.20;99.90;;;;;;5054137;28;20083;-65
2023/06/04 11:37:34;;;;;;;9.52;4.43;;;32.00;99.90;;;;;;5054307;28;20029;-65
2023/06/04 11:40:05;;;;;;;8.73;4.90;;;32.10;99.90;;;;;;5054339;28;20479;-65
2023/06/04 11:42:31;;;;;;;8.35;5.38;;;31.40;99.90;;;;;;5054261;28;20032;-65
2023/06/04 11:44:57;;;;;;;5.07;4.00;;;30.40;99.90;;;;;;5054129;28;20429;-65
2023/06/04 11:47:24;;;;;;;4.35;3.95;;;30.10;99.90;;;;;;5053951;28;20103;-65
2023/06/04 11:49:57;;;;;;;11.07;5.07;;;30.30;99.90;;;;;;5054027;28;20025;-65
2023/06/04 11:52:23;;;;;;;7.07;5.07;;;29.70;99.90;;;;;;5052828;28;20037;-65
2023/06/04 11:54:49;;;;;;;11.20;4.97;;;29.60;99.90;;;;;;5054118;28;20029;-65
2023/06/04 11:57:15;;;;;;;8.85;4.43;;;30.40;99.90;;;;;;5058741;28;20040;-65
2023/06/04 11:59:42;;;;;;;6.47;4.55;;;30.90;99.90;;;;;;5073970;28;20389;-65
2023/06/04 12:02:08;;;;;;;5.47;4.07;;;31.30;99.90;;;;;;5074056;28;20037;-65
2023/06/04 12:04:33;;;;;;;9.73;4.85;;;31.50;99.90;;;;;;5072654;28;20394;-65
2023/06/04 12:07:02;;;;;;;9.82;4.85;;;31.20;99.90;;;;;;5073842;28;20032;-65
2023/06/04 12:09:38;;;;;;;8.93;4.78;;;30.50;99.90;;;;;;5073804;28;20107;-65
2023/06/04 12:12:05;;;;;;;11.10;5.38;;;31.20;99.90;;;;;;5072728;28;20029;-65
2023/06/04 12:14:32;;;;;;;9.45;4.22;;;31.80;99.90;;;;;;5073855;28;20436;-65
2023/06/04 12:17:05;;;;;;;5.35;3.95;;;29.80;99.90;;;;;;5073863;28;20029;-65
2023/06/04 12:19:31;;;;;;;10.77;4.78;;;30.00;99.90;;;;;;5075824;28;20028;-65
2023/06/04 12:22:05;;;;;;;7.15;4.50;;;30.10;99.90;;;;;;5076294;28;20063;-65
2023/06/04 12:24:35;;;;;;;9.55;5.05;;;29.90;99.90;;;;;;5077406;28;20039;-65
2023/06/04 12:27:06;;;;;;;6.60;4.13;;;30.60;99.90;;;;;;5077335;28;20025;-65
2023/06/04 12:29:33;;;;;;;9.32;4.53;;;30.00;99.90;;;;;;5077382;28;20040;-65
2023/06/04 12:32:11;;;;;;;9.15;5.05;;;30.00;99.90;;;;;;5077233;28;20021;-65
2023/06/04 12:34:40;;;;;;;9.65;5.13;;;30.10;99.90;;;;;;5077599;28;20029;-65
2023/06/04 12:37:07;;;;;;;8.52;5.03;;;30.60;99.90;;;;;;5076076;28;20451;-65
2023/06/04 12:39:34;;;;;;;9.77;4.47;;;30.30;99.90;;;;;;5077254;28;20055;-65
2023/06/04 12:42:00;;;;;;;8.73;5.00;;;30.30;99.90;;;;;;5077258;28;20432;-65